This is the latest recevied weather packets stored in our database for station/object IZ2MHJ-3. If no packets are shown the sender has not sent any weather packets the latest 10 day(s).
| Time | Temp. | Humidity | Pressure | Rain* | Wind** | Luminosity | Snow |
|---|---|---|---|---|---|---|---|
| 1777935910 | 15° C | 57% | 1017.1 hPa | - | - | - | - |
| 1777934709 | 15° C | 57% | 1017.3 hPa | - | - | - | - |
| 1777933509 | 15° C | 57% | 1017.4 hPa | - | - | - | - |
| 1777932309 | 16.11° C | 55% | 1017.5 hPa | - | - | - | - |
| 1777931108 | 16.11° C | 55% | 1017.8 hPa | - | - | - | - |
| 1777929908 | 16.11° C | 53% | 1017.8 hPa | - | - | - | - |
| 1777928708 | 16.67° C | 54% | 1017.9 hPa | - | - | - | - |
| 1777927508 | 16.67° C | 53% | 1017.8 hPa | - | - | - | - |
| 1777926307 | 17.22° C | 52% | 1017.8 hPa | - | - | - | - |
| 1777925107 | 18.33° C | 49% | 1017.7 hPa | - | - | - | - |
| 1777923907 | 18.89° C | 48% | 1017.5 hPa | - | - | - | - |
| 1777922706 | 19.44° C | 47% | 1017.4 hPa | - | - | - | - |
| 1777921506 | 20° C | 45% | 1017.1 hPa | - | - | - | - |
| 1777920306 | 20.56° C | 44% | 1017 hPa | - | - | - | - |
| 1777919105 | 21.11° C | 43% | 1016.9 hPa | - | - | - | - |
| 1777917905 | 21.67° C | 39% | 1016.8 hPa | - | - | - | - |
| 1777916705 | 22.78° C | 35% | 1016.6 hPa | - | - | - | - |
| 1777915504 | 23.33° C | 34% | 1016.6 hPa | - | - | - | - |
| 1777914304 | 24.44° C | 33% | 1016.6 hPa | - | - | - | - |
| 1777913104 | 24.44° C | 33% | 1016.7 hPa | - | - | - | - |
| 1777911903 | 24.44° C | 31% | 1016.7 hPa | - | - | - | - |
| 1777910703 | 24.44° C | 32% | 1016.9 hPa | - | - | - | - |
| 1777909503 | 23.89° C | 32% | 1017 hPa | - | - | - | - |
| 1777908303 | 23.89° C | 32% | 1017.1 hPa | - | - | - | - |
| 1777907102 | 23.89° C | 33% | 1017.1 hPa | - | - | - | - |
* Rain since midnight (hover to see other rain measurements)
** Current wind speed in m/s (hover to see current wind gust speed)